createdAt,value
2022-12-19T00:00:02.298Z,15.10
2022-12-19T00:01:22.834Z,15.20
2022-12-19T00:02:26.121Z,15.30
2022-12-19T00:03:28.760Z,15.30
2022-12-19T00:04:31.191Z,15.40
2022-12-19T00:05:37.782Z,15.50
2022-12-19T00:06:41.913Z,15.60
2022-12-19T00:07:48.749Z,15.70
2022-12-19T00:08:52.635Z,15.70
2022-12-19T00:09:54.942Z,15.70
2022-12-19T00:11:00.323Z,15.70
2022-12-19T00:12:02.991Z,15.70
2022-12-19T00:13:05.344Z,15.80
2022-12-19T00:14:10.193Z,15.80
2022-12-19T00:15:12.514Z,15.80
2022-12-19T00:16:19.062Z,15.80
2022-12-19T00:17:21.502Z,15.80
2022-12-19T00:18:23.830Z,15.80
2022-12-19T00:19:26.190Z,15.80
2022-12-19T00:20:28.769Z,15.80
2022-12-19T00:21:34.695Z,15.80
2022-12-19T00:22:37.486Z,15.80
2022-12-19T00:23:40.486Z,15.90
2022-12-19T00:24:42.911Z,15.90
2022-12-19T00:25:45.260Z,15.90
2022-12-19T00:26:48.317Z,15.90
2022-12-19T00:27:50.654Z,16.00
2022-12-19T00:28:55.825Z,16.00
2022-12-19T00:30:00.017Z,16.00
2022-12-19T00:31:03.016Z,16.00
2022-12-19T00:32:05.469Z,16.00
2022-12-19T00:33:07.861Z,16.00
2022-12-19T00:34:10.702Z,16.00
2022-12-19T00:35:15.589Z,16.10
2022-12-19T00:36:23.442Z,16.10
2022-12-19T00:37:25.810Z,16.20
2022-12-19T00:38:30.178Z,16.10
2022-12-19T00:39:32.523Z,16.10
2022-12-19T00:40:34.901Z,16.10
2022-12-19T00:41:41.621Z,16.10
2022-12-19T00:42:48.669Z,16.20
2022-12-19T00:44:02.332Z,16.20
2022-12-19T00:45:07.356Z,16.20
2022-12-19T00:46:12.608Z,16.10
2022-12-19T00:47:15.938Z,16.10
2022-12-19T00:48:18.521Z,16.10
2022-12-19T00:49:21.994Z,16.10
2022-12-19T00:50:24.417Z,16.10
2022-12-19T00:51:29.000Z,16.10
2022-12-19T00:52:31.295Z,16.10
2022-12-19T00:53:35.531Z,16.10
2022-12-19T00:54:38.653Z,16.10
2022-12-19T00:55:41.215Z,16.10
2022-12-19T00:56:44.576Z,16.20
2022-12-19T00:57:47.205Z,16.10
2022-12-19T00:58:50.306Z,16.10
2022-12-19T00:59:52.593Z,16.10
2022-12-19T01:00:55.033Z,16.10
2022-12-19T01:01:57.781Z,16.20
2022-12-19T01:03:01.216Z,16.20
2022-12-19T01:05:30.868Z,16.20
2022-12-19T01:06:33.671Z,16.10
2022-12-19T01:07:37.450Z,16.20
2022-12-19T01:08:40.044Z,16.10
2022-12-19T01:09:42.395Z,16.10
2022-12-19T01:10:46.666Z,16.20
2022-12-19T01:12:25.283Z,16.20
2022-12-19T01:13:32.525Z,16.20
2022-12-19T01:14:35.678Z,16.30
2022-12-19T01:15:40.582Z,16.30
2022-12-19T01:16:42.908Z,16.30
2022-12-19T01:17:45.417Z,16.40
2022-12-19T01:18:47.742Z,16.40
2022-12-19T01:19:50.069Z,16.40
2022-12-19T01:20:52.523Z,16.50
2022-12-19T01:21:54.962Z,16.60
2022-12-19T01:22:58.885Z,16.60
2022-12-19T01:24:03.961Z,16.60
2022-12-19T01:25:06.741Z,16.50
2022-12-19T01:26:09.108Z,16.50
2022-12-19T01:27:11.435Z,16.50
2022-12-19T01:28:15.301Z,16.50
2022-12-19T01:29:19.130Z,16.50
2022-12-19T01:30:23.270Z,16.60
2022-12-19T01:31:27.009Z,16.60
2022-12-19T01:32:30.999Z,16.70
2022-12-19T01:33:35.762Z,16.70
2022-12-19T01:34:39.746Z,16.70
2022-12-19T01:35:43.248Z,16.70
2022-12-19T01:36:47.012Z,16.70
2022-12-19T01:37:51.128Z,16.70
2022-12-19T01:38:56.702Z,16.70
2022-12-19T01:39:59.020Z,16.70
2022-12-19T01:41:01.846Z,16.70
2022-12-19T01:42:19.612Z,16.60
2022-12-19T01:43:28.655Z,16.60
2022-12-19T01:44:31.978Z,16.60
2022-12-19T01:45:43.563Z,16.60
2022-12-19T01:46:48.602Z,16.60
2022-12-19T01:47:53.955Z,16.60
2022-12-19T01:48:57.398Z,16.50
2022-12-19T01:50:01.327Z,16.50
2022-12-19T01:51:19.743Z,16.50
2022-12-19T01:52:23.712Z,16.50
2022-12-19T01:53:30.182Z,16.60
2022-12-19T01:54:36.755Z,16.50
2022-12-19T01:55:41.089Z,16.60
2022-12-19T01:56:47.194Z,16.50
2022-12-19T01:57:49.623Z,16.50
2022-12-19T01:59:02.421Z,16.50
2022-12-19T02:00:12.513Z,16.40
2022-12-19T02:01:17.894Z,16.40
2022-12-19T02:02:26.616Z,16.50
2022-12-19T02:03:31.885Z,16.50
2022-12-19T02:04:34.844Z,16.50
2022-12-19T02:05:39.072Z,16.50
2022-12-19T02:06:42.952Z,16.50
2022-12-19T02:07:46.599Z,16.40
2022-12-19T02:08:49.367Z,16.40
2022-12-19T02:09:56.985Z,16.50
2022-12-19T02:11:03.536Z,16.40
2022-12-19T02:12:07.772Z,16.50
2022-12-19T02:13:12.755Z,16.50
2022-12-19T02:14:16.667Z,16.50
2022-12-19T02:15:20.884Z,16.40
2022-12-19T02:16:33.942Z,16.40
2022-12-19T02:17:52.770Z,16.40
2022-12-19T02:19:12.411Z,16.40
2022-12-19T02:20:26.477Z,16.30
2022-12-19T02:21:54.545Z,16.30
2022-12-19T02:23:00.564Z,16.30
2022-12-19T02:24:26.668Z,16.30
2022-12-19T02:25:56.828Z,16.30
2022-12-19T02:27:30.255Z,16.30
2022-12-19T02:29:12.285Z,16.30
2022-12-19T02:30:35.738Z,16.30
2022-12-19T02:32:03.802Z,16.30
2022-12-19T02:33:17.407Z,16.30
2022-12-19T02:34:53.079Z,16.30
2022-12-19T02:36:05.259Z,16.20
2022-12-19T02:37:12.636Z,16.30
2022-12-19T02:38:27.010Z,16.20
2022-12-19T02:39:55.197Z,16.10
2022-12-19T02:41:05.383Z,16.00
2022-12-19T02:42:11.634Z,16.10
2022-12-19T02:43:15.745Z,16.00
2022-12-19T02:44:28.757Z,15.90
2022-12-19T02:45:35.804Z,15.90
2022-12-19T02:46:38.605Z,15.90
2022-12-19T02:47:42.353Z,15.80
2022-12-19T02:48:45.588Z,15.70
2022-12-19T02:49:48.635Z,15.70
2022-12-19T02:50:51.917Z,15.60
2022-12-19T02:51:54.727Z,15.60
2022-12-19T02:52:57.956Z,15.60
2022-12-19T02:54:00.353Z,15.60
2022-12-19T02:55:09.554Z,15.50
2022-12-19T02:56:28.556Z,15.60
2022-12-19T02:57:49.925Z,15.50
2022-12-19T02:58:58.169Z,15.50
2022-12-19T03:00:07.865Z,15.50
2022-12-19T03:01:40.196Z,15.50
2022-12-19T03:03:15.491Z,15.40
2022-12-19T03:04:40.179Z,15.40
2022-12-19T03:06:27.389Z,15.40
2022-12-19T03:07:34.108Z,15.40
2022-12-19T03:09:08.554Z,15.30
2022-12-19T03:10:38.898Z,15.40
2022-12-19T03:11:42.550Z,15.30
2022-12-19T03:12:57.542Z,15.40
2022-12-19T03:14:05.714Z,15.40
2022-12-19T03:15:11.948Z,15.30
2022-12-19T03:16:15.164Z,15.30
2022-12-19T03:17:20.729Z,15.30
2022-12-19T03:18:23.809Z,15.30
2022-12-19T03:19:26.226Z,15.30
2022-12-19T03:20:49.716Z,15.40
2022-12-19T03:21:52.870Z,15.40
2022-12-19T03:22:55.205Z,15.50
2022-12-19T03:23:58.715Z,15.50
2022-12-19T03:25:01.727Z,15.40
2022-12-19T03:26:19.634Z,15.50
2022-12-19T03:27:28.406Z,15.40
2022-12-19T03:28:42.776Z,15.40
2022-12-19T03:29:54.904Z,15.40
2022-12-19T03:30:59.691Z,15.30
2022-12-19T03:32:07.082Z,15.40
2022-12-19T03:33:11.893Z,15.40
2022-12-19T03:34:25.264Z,15.40
2022-12-19T03:35:31.686Z,15.40
2022-12-19T03:36:41.922Z,15.40
2022-12-19T03:37:46.703Z,15.40
2022-12-19T03:38:49.844Z,15.30
2022-12-19T03:39:57.972Z,15.30
2022-12-19T03:41:02.547Z,15.30
2022-12-19T03:42:25.299Z,15.30
2022-12-19T03:43:29.853Z,15.30
2022-12-19T03:44:35.527Z,15.30
2022-12-19T03:45:59.332Z,15.40
2022-12-19T03:47:11.346Z,15.30
2022-12-19T03:48:38.114Z,15.30
2022-12-19T03:49:40.688Z,15.30
2022-12-19T03:51:04.597Z,15.30
2022-12-19T03:52:22.198Z,15.30
2022-12-19T03:53:42.919Z,15.30
2022-12-19T03:55:12.603Z,15.30
2022-12-19T03:56:46.113Z,15.30
2022-12-19T03:58:12.090Z,15.30
2022-12-19T03:59:25.207Z,15.30
2022-12-19T04:00:28.416Z,15.30
2022-12-19T04:01:33.876Z,15.30
2022-12-19T04:02:38.617Z,15.30
2022-12-19T04:03:41.103Z,15.30
2022-12-19T04:04:51.455Z,15.30
2022-12-19T04:05:54.799Z,15.30
2022-12-19T04:06:58.396Z,15.30
2022-12-19T04:08:07.979Z,15.30
2022-12-19T04:09:10.865Z,15.30
2022-12-19T04:10:19.240Z,15.40
2022-12-19T04:11:22.436Z,15.40
2022-12-19T04:12:33.239Z,15.40
2022-12-19T04:13:43.825Z,15.40
2022-12-19T04:14:47.121Z,15.40
2022-12-19T04:16:18.468Z,14.50
2022-12-19T04:17:50.958Z,13.60
2022-12-19T04:18:59.500Z,13.20
2022-12-19T04:20:16.977Z,14.00
2022-12-19T04:21:25.836Z,14.60
2022-12-19T04:22:50.909Z,15.00
2022-12-19T04:24:00.587Z,15.40
2022-12-19T04:25:11.277Z,15.70
2022-12-19T04:26:14.847Z,15.90
2022-12-19T04:27:18.334Z,16.10
2022-12-19T04:28:26.865Z,16.20
2022-12-19T04:29:34.090Z,16.40
2022-12-19T04:30:39.032Z,16.60
2022-12-19T04:31:42.187Z,16.80
2022-12-19T04:32:45.210Z,16.90
2022-12-19T04:33:47.761Z,17.00
2022-12-19T04:34:50.284Z,17.10
2022-12-19T04:35:52.815Z,17.20
2022-12-19T04:36:55.442Z,17.30
2022-12-19T04:37:58.016Z,17.50
2022-12-19T04:39:00.376Z,17.60
2022-12-19T04:40:03.259Z,17.70
2022-12-19T04:41:06.043Z,17.30
2022-12-19T04:42:08.416Z,16.40
2022-12-19T04:43:10.920Z,15.80
2022-12-19T04:44:13.728Z,16.00
2022-12-19T04:45:17.379Z,16.00
2022-12-19T04:46:19.766Z,16.00
2022-12-19T04:47:22.179Z,16.00
2022-12-19T04:48:24.969Z,15.90
2022-12-19T04:49:27.885Z,15.90
2022-12-19T04:50:32.230Z,15.90
2022-12-19T04:51:34.588Z,15.90
2022-12-19T04:52:37.004Z,15.80
2022-12-19T04:53:39.423Z,15.80
2022-12-19T04:54:41.745Z,15.70
2022-12-19T04:55:44.242Z,15.10
2022-12-19T04:56:47.313Z,14.50
2022-12-19T04:57:49.809Z,14.80
2022-12-19T04:59:10.385Z,15.30
2022-12-19T05:00:13.970Z,15.80
2022-12-19T05:01:18.435Z,16.00
2022-12-19T05:02:21.012Z,16.30
2022-12-19T05:03:23.730Z,16.40
2022-12-19T05:04:26.726Z,16.60
2022-12-19T05:05:29.972Z,16.70
2022-12-19T05:06:32.681Z,16.90
2022-12-19T05:07:35.236Z,17.10
2022-12-19T05:08:39.829Z,17.20
2022-12-19T05:09:42.272Z,17.40
2022-12-19T05:10:44.731Z,17.50
2022-12-19T05:11:47.276Z,17.60
2022-12-19T05:12:49.633Z,17.60
2022-12-19T05:13:52.125Z,17.70
2022-12-19T05:14:54.602Z,17.70
2022-12-19T05:16:08.675Z,17.80
2022-12-19T05:17:11.163Z,17.80
2022-12-19T05:18:13.539Z,17.90
2022-12-19T05:19:16.870Z,17.90
2022-12-19T05:20:19.328Z,17.90
2022-12-19T05:21:22.681Z,18.00
2022-12-19T05:22:28.139Z,18.00
2022-12-19T05:23:30.783Z,18.10
2022-12-19T05:24:33.647Z,18.20
2022-12-19T05:25:36.040Z,18.20
2022-12-19T05:26:38.403Z,18.20
2022-12-19T05:27:40.845Z,17.60
2022-12-19T05:28:43.300Z,16.40
2022-12-19T05:29:45.719Z,16.40
2022-12-19T05:30:52.269Z,16.80
2022-12-19T05:31:55.063Z,17.10
2022-12-19T05:32:57.407Z,17.30
2022-12-19T05:33:59.717Z,17.50
2022-12-19T05:35:02.071Z,17.70
2022-12-19T05:36:05.031Z,17.80
2022-12-19T05:37:07.332Z,17.90
2022-12-19T05:38:09.758Z,17.90
2022-12-19T05:39:12.226Z,18.00
2022-12-19T05:40:14.754Z,18.10
2022-12-19T05:41:19.372Z,18.20
2022-12-19T05:42:21.694Z,18.30
2022-12-19T05:43:24.460Z,18.30
2022-12-19T05:44:26.784Z,18.40
2022-12-19T05:45:29.742Z,18.50
2022-12-19T05:46:32.337Z,18.50
2022-12-19T05:47:35.173Z,18.60
2022-12-19T05:48:38.014Z,18.60
2022-12-19T05:49:40.363Z,18.60
2022-12-19T05:50:48.009Z,18.60
2022-12-19T05:51:50.339Z,18.60
2022-12-19T05:52:52.679Z,18.70
2022-12-19T05:53:55.140Z,18.70
2022-12-19T05:54:58.404Z,18.80
2022-12-19T05:56:13.266Z,18.80
2022-12-19T05:57:16.737Z,18.80
2022-12-19T05:58:22.518Z,18.80
2022-12-19T06:01:19.025Z,18.90
2022-12-19T06:02:21.522Z,18.90
2022-12-19T06:03:24.090Z,18.90
2022-12-19T06:04:26.412Z,18.90
2022-12-19T06:05:29.311Z,18.90
2022-12-19T06:06:31.993Z,18.90
2022-12-19T06:07:35.356Z,19.00
2022-12-19T06:08:38.091Z,19.00
2022-12-19T06:09:40.356Z,18.10
2022-12-19T06:10:42.671Z,16.00
2022-12-19T06:11:45.009Z,15.90
2022-12-19T06:12:47.298Z,16.40
2022-12-19T06:13:49.814Z,16.80
2022-12-19T06:14:52.179Z,17.10
2022-12-19T06:16:05.585Z,17.30
2022-12-19T06:17:07.940Z,17.60
2022-12-19T06:18:10.258Z,17.80
2022-12-19T06:19:14.826Z,18.00
2022-12-19T06:20:17.899Z,18.10
2022-12-19T06:21:22.590Z,18.30
2022-12-19T06:22:24.918Z,18.40
2022-12-19T06:23:29.639Z,18.50
2022-12-19T06:24:32.166Z,18.60
2022-12-19T06:25:37.779Z,18.70
2022-12-19T06:26:40.704Z,18.70
2022-12-19T06:27:43.134Z,18.80
2022-12-19T06:28:45.474Z,18.80
2022-12-19T06:29:47.786Z,18.90
2022-12-19T06:30:50.132Z,18.90
2022-12-19T06:31:52.900Z,18.90
2022-12-19T06:32:55.914Z,18.90
2022-12-19T06:33:59.027Z,19.00
2022-12-19T06:35:05.038Z,19.00
2022-12-19T06:36:14.292Z,19.00
2022-12-19T06:37:16.790Z,19.10
2022-12-19T06:38:19.116Z,19.10
2022-12-19T06:39:22.354Z,19.00
2022-12-19T06:41:03.162Z,17.20
2022-12-19T06:42:23.840Z,15.80
2022-12-19T06:43:26.472Z,14.10
2022-12-19T06:44:28.762Z,14.50
2022-12-19T06:45:31.520Z,15.10
2022-12-19T06:46:34.460Z,15.60
2022-12-19T06:47:36.882Z,16.00
2022-12-19T06:48:39.218Z,16.30
2022-12-19T06:49:41.548Z,16.60
2022-12-19T06:50:43.847Z,16.90
2022-12-19T06:51:46.542Z,17.20
2022-12-19T06:52:48.934Z,17.40
2022-12-19T06:53:51.737Z,17.50
2022-12-19T06:54:54.009Z,17.70
2022-12-19T06:55:58.482Z,17.80
2022-12-19T06:57:01.330Z,18.00
2022-12-19T06:58:04.204Z,18.10
2022-12-19T06:59:08.109Z,18.20
2022-12-19T07:00:11.342Z,18.30
2022-12-19T07:01:52.775Z,18.30
2022-12-19T07:02:57.355Z,18.40
2022-12-19T07:03:59.880Z,18.50
2022-12-19T07:05:05.822Z,18.60
2022-12-19T07:06:08.451Z,18.70
2022-12-19T07:07:10.853Z,18.70
2022-12-19T07:08:13.651Z,18.70
2022-12-19T07:09:16.268Z,18.80
2022-12-19T07:10:18.816Z,18.80
2022-12-19T07:11:21.212Z,18.90
2022-12-19T07:12:23.538Z,18.90
2022-12-19T07:13:27.366Z,18.90
2022-12-19T07:14:29.782Z,19.00
2022-12-19T07:15:34.909Z,19.00
2022-12-19T07:16:37.417Z,19.10
2022-12-19T07:17:39.883Z,19.10
2022-12-19T07:18:43.425Z,19.10
2022-12-19T07:19:45.811Z,19.10
2022-12-19T07:20:48.213Z,19.20
2022-12-19T07:21:50.586Z,19.20
2022-12-19T07:22:53.146Z,19.20
2022-12-19T07:23:55.867Z,19.20
2022-12-19T07:24:59.408Z,19.20
2022-12-19T07:26:01.920Z,19.20
2022-12-19T07:27:08.149Z,19.20
2022-12-19T07:28:10.643Z,19.30
2022-12-19T07:29:13.900Z,19.30
2022-12-19T07:30:16.236Z,19.20
2022-12-19T07:31:18.592Z,17.10
2022-12-19T07:32:21.762Z,15.70
2022-12-19T07:33:24.102Z,14.40
2022-12-19T07:34:26.502Z,14.10
2022-12-19T07:35:28.838Z,14.80
2022-12-19T07:36:31.390Z,15.40
2022-12-19T07:37:33.999Z,15.80
2022-12-19T07:38:36.902Z,16.20
2022-12-19T07:39:39.243Z,16.50
2022-12-19T07:40:41.824Z,16.70
2022-12-19T07:41:44.156Z,17.00
2022-12-19T07:42:46.506Z,17.20
2022-12-19T07:43:49.200Z,17.40
2022-12-19T07:44:51.544Z,17.60
2022-12-19T07:45:55.396Z,17.80
2022-12-19T07:46:57.785Z,18.00
2022-12-19T07:48:01.507Z,18.10
2022-12-19T07:49:03.845Z,18.20
2022-12-19T07:50:06.546Z,18.40
2022-12-19T07:51:08.862Z,18.50
2022-12-19T07:52:11.217Z,18.50
2022-12-19T07:53:13.535Z,18.60
2022-12-19T07:54:15.875Z,18.70
2022-12-19T07:55:18.189Z,18.80
2022-12-19T07:56:20.569Z,18.90
2022-12-19T07:57:23.045Z,18.90
2022-12-19T07:58:27.850Z,18.90
2022-12-19T07:59:35.637Z,18.90
2022-12-19T08:00:41.397Z,19.00
2022-12-19T08:01:43.766Z,19.10
2022-12-19T08:02:46.739Z,19.10
2022-12-19T08:03:49.076Z,19.10
2022-12-19T08:04:51.496Z,19.10
2022-12-19T08:05:58.736Z,19.20
2022-12-19T08:07:02.302Z,19.20
2022-12-19T08:08:04.838Z,19.20
2022-12-19T08:09:07.126Z,19.20
2022-12-19T08:10:11.489Z,19.20
2022-12-19T08:11:17.415Z,19.30
2022-12-19T08:12:19.955Z,19.30
2022-12-19T08:13:22.428Z,19.30
2022-12-19T08:14:25.059Z,19.30
2022-12-19T08:15:27.407Z,19.30
2022-12-19T08:16:29.873Z,19.30
2022-12-19T08:17:32.479Z,17.40
2022-12-19T08:18:34.905Z,16.20
2022-12-19T08:19:37.265Z,16.50
2022-12-19T08:20:39.617Z,16.90
2022-12-19T08:21:41.949Z,17.20
2022-12-19T08:22:44.577Z,17.50
2022-12-19T08:23:47.053Z,17.80
2022-12-19T08:24:49.430Z,18.00
2022-12-19T08:26:10.451Z,18.10
2022-12-19T08:27:12.808Z,18.30
2022-12-19T08:28:15.473Z,18.40
2022-12-19T08:29:17.943Z,18.60
2022-12-19T08:30:20.326Z,18.60
2022-12-19T08:31:25.077Z,18.70
2022-12-19T08:32:29.063Z,18.80
2022-12-19T08:33:31.725Z,18.90
2022-12-19T08:34:34.140Z,18.90
2022-12-19T08:35:37.469Z,19.00
2022-12-19T08:36:39.825Z,19.00
2022-12-19T08:37:42.339Z,19.10
2022-12-19T08:38:45.174Z,19.10
2022-12-19T08:39:47.706Z,19.20
2022-12-19T08:40:54.538Z,19.20
2022-12-19T08:41:57.031Z,19.30
2022-12-19T08:42:59.471Z,19.30
2022-12-19T08:44:02.193Z,19.30
2022-12-19T08:45:05.428Z,19.30
2022-12-19T08:46:09.261Z,19.40
2022-12-19T08:47:11.758Z,19.40
2022-12-19T08:48:14.156Z,19.30
2022-12-19T08:49:16.681Z,19.40
2022-12-19T08:50:19.114Z,18.60
2022-12-19T08:51:21.483Z,16.60
2022-12-19T08:52:24.629Z,15.30
2022-12-19T08:53:28.666Z,15.60
2022-12-19T08:54:31.030Z,16.20
2022-12-19T08:55:35.617Z,16.60
2022-12-19T08:56:38.393Z,17.10
2022-12-19T08:57:48.236Z,17.40
2022-12-19T08:58:53.622Z,17.70
2022-12-19T08:59:55.941Z,17.80
2022-12-19T09:01:05.289Z,18.00
2022-12-19T09:02:10.782Z,18.20
2022-12-19T09:03:13.501Z,18.30
2022-12-19T09:05:26.055Z,18.40
2022-12-19T09:06:05.461Z,18.50
2022-12-19T09:07:01.818Z,18.60
2022-12-19T09:08:04.614Z,18.80
2022-12-19T09:09:07.195Z,18.80
2022-12-19T09:10:09.662Z,18.90
2022-12-19T09:11:14.410Z,18.90
2022-12-19T09:12:16.867Z,19.00
2022-12-19T09:13:19.265Z,19.00
2022-12-19T09:14:21.786Z,17.70
2022-12-19T09:15:24.535Z,15.80
2022-12-19T09:16:28.382Z,15.70
2022-12-19T09:17:30.757Z,16.30
2022-12-19T09:18:34.677Z,16.70
2022-12-19T09:19:37.170Z,17.10
2022-12-19T09:20:40.097Z,17.40
2022-12-19T09:21:42.629Z,17.70
2022-12-19T09:22:45.017Z,17.90
2022-12-19T09:23:52.984Z,18.10
2022-12-19T09:24:55.366Z,18.20
2022-12-19T09:26:09.556Z,18.40
2022-12-19T09:27:12.032Z,18.50
2022-12-19T09:28:29.707Z,18.50
2022-12-19T09:29:35.335Z,18.60
2022-12-19T09:30:38.407Z,18.70
2022-12-19T09:31:41.136Z,18.80
2022-12-19T09:32:43.921Z,18.90
2022-12-19T09:33:47.327Z,18.90
2022-12-19T09:34:49.787Z,19.00
2022-12-19T09:35:53.142Z,19.10
2022-12-19T09:36:59.092Z,19.10
2022-12-19T09:38:01.749Z,19.20
2022-12-19T09:39:04.287Z,19.20
2022-12-19T09:40:07.459Z,19.20
2022-12-19T09:41:31.787Z,19.30
2022-12-19T09:42:57.855Z,19.30
2022-12-19T09:44:21.850Z,19.40
2022-12-19T09:45:42.691Z,19.40
2022-12-19T09:46:52.006Z,19.50
2022-12-19T09:47:57.633Z,19.50
2022-12-19T09:49:01.864Z,19.50
2022-12-19T09:50:31.363Z,19.50
2022-12-19T09:51:58.729Z,19.60
2022-12-19T09:53:15.836Z,19.60
2022-12-19T09:54:24.747Z,19.60
2022-12-19T09:55:41.037Z,19.60
2022-12-19T09:56:46.034Z,19.60
2022-12-19T09:58:01.229Z,19.60
2022-12-19T09:59:47.939Z,19.60
2022-12-19T10:01:00.027Z,19.60
2022-12-19T10:02:24.703Z,19.60
2022-12-19T10:03:40.781Z,19.70
2022-12-19T10:04:51.684Z,19.70
2022-12-19T10:07:11.503Z,19.70
2022-12-19T10:07:59.654Z,19.70
2022-12-19T10:10:34.025Z,19.70
2022-12-19T10:12:40.083Z,19.60
2022-12-19T10:12:42.887Z,19.40
2022-12-19T10:14:16.261Z,19.30
2022-12-19T10:15:35.687Z,19.10
2022-12-19T10:17:22.137Z,19.00
2022-12-19T10:18:24.601Z,18.80
2022-12-19T10:19:31.568Z,19.10
2022-12-19T10:20:48.405Z,19.30
2022-12-19T10:22:19.539Z,19.30
2022-12-19T10:23:30.863Z,19.50
2022-12-19T10:25:08.062Z,19.50
2022-12-19T10:26:20.666Z,19.60
2022-12-19T10:27:59.559Z,19.60
2022-12-19T10:29:47.120Z,19.70
2022-12-19T10:31:11.466Z,19.70
2022-12-19T10:32:24.169Z,19.70
2022-12-19T10:33:34.542Z,19.70
2022-12-19T10:34:43.305Z,19.80
2022-12-19T10:35:49.235Z,19.80
2022-12-19T10:37:28.866Z,19.80
2022-12-19T10:38:39.789Z,19.80
2022-12-19T10:40:24.767Z,19.80
2022-12-19T10:41:32.527Z,19.80
2022-12-19T10:42:38.243Z,19.90
2022-12-19T10:43:57.423Z,20.00
2022-12-19T10:45:04.570Z,19.90
2022-12-19T10:46:37.156Z,19.80
2022-12-19T10:47:41.047Z,19.70
2022-12-19T10:48:43.401Z,19.80
2022-12-19T10:49:45.779Z,19.80
2022-12-19T10:50:49.237Z,19.80
2022-12-19T10:52:00.369Z,19.80
2022-12-19T10:53:07.662Z,19.90
2022-12-19T10:54:10.126Z,19.90
2022-12-19T10:55:31.442Z,20.00
2022-12-19T10:56:37.703Z,20.00
2022-12-19T10:57:40.574Z,20.00
2022-12-19T10:58:45.742Z,20.00
2022-12-19T11:00:04.776Z,20.00
2022-12-19T11:01:40.077Z,20.10
2022-12-19T11:02:48.292Z,20.10
2022-12-19T11:04:22.645Z,20.00
2022-12-19T11:05:40.129Z,20.00
2022-12-19T11:06:49.880Z,20.10
2022-12-19T11:08:02.509Z,20.10
2022-12-19T11:09:24.995Z,20.10
2022-12-19T11:13:14.807Z,20.10
2022-12-19T11:15:50.441Z,20.10
2022-12-19T11:18:08.686Z,20.10
2022-12-19T11:19:13.501Z,20.10
2022-12-19T11:23:22.252Z,20.10
2022-12-19T11:24:30.616Z,20.10
2022-12-19T11:29:19.252Z,20.10
2022-12-19T11:29:27.343Z,20.10
2022-12-19T11:29:30.746Z,20.20
2022-12-19T11:29:31.732Z,20.20
2022-12-19T11:30:05.572Z,20.20
2022-12-19T11:30:40.813Z,20.20
2022-12-19T11:30:43.171Z,20.20
2022-12-19T11:32:50.476Z,20.20
2022-12-19T11:34:05.260Z,20.20
2022-12-19T11:35:22.004Z,20.20
2022-12-19T11:36:34.819Z,20.20
2022-12-19T11:37:44.358Z,20.20
2022-12-19T11:38:53.309Z,20.20
2022-12-19T11:40:01.849Z,20.20
2022-12-19T11:41:12.939Z,20.20
2022-12-19T11:42:24.840Z,20.20
2022-12-19T11:43:53.297Z,20.20
2022-12-19T11:45:02.802Z,20.20
2022-12-19T11:46:16.211Z,20.20
2022-12-19T11:47:40.427Z,20.30
2022-12-19T11:48:55.075Z,20.30
2022-12-19T11:50:11.172Z,20.30
2022-12-19T11:51:28.784Z,20.20
2022-12-19T11:53:05.859Z,20.20
2022-12-19T11:54:24.017Z,20.30
2022-12-19T11:55:33.048Z,20.30
2022-12-19T11:56:35.566Z,20.30
2022-12-19T11:57:39.524Z,20.30
2022-12-19T11:58:52.703Z,20.30
2022-12-19T11:59:59.825Z,20.40
2022-12-19T12:01:34.191Z,20.40
2022-12-19T12:03:10.193Z,20.30
2022-12-19T12:04:27.071Z,20.30
2022-12-19T12:05:43.662Z,20.30
2022-12-19T12:06:54.203Z,20.40
2022-12-19T12:08:49.414Z,20.30
2022-12-19T12:13:47.739Z,20.40
2022-12-19T12:15:56.099Z,20.40
2022-12-19T12:20:12.824Z,20.40
2022-12-19T12:20:22.790Z,20.40
2022-12-19T12:23:06.662Z,20.40
2022-12-19T12:30:43.379Z,20.40
2022-12-19T12:31:13.895Z,20.30
2022-12-19T12:31:20.455Z,20.00
2022-12-19T12:31:32.466Z,20.20
2022-12-19T12:31:49.684Z,20.40
2022-12-19T12:31:50.279Z,20.10
2022-12-19T12:31:55.326Z,20.30
2022-12-19T12:32:03.368Z,20.00
2022-12-19T12:35:50.035Z,20.40
2022-12-19T12:35:52.125Z,20.40
2022-12-19T12:35:54.548Z,20.40
2022-12-19T12:38:19.049Z,20.50
2022-12-19T12:39:24.313Z,20.50
2022-12-19T12:41:14.478Z,20.50
2022-12-19T12:42:47.574Z,20.40
2022-12-19T12:43:58.739Z,20.30
2022-12-19T12:45:13.186Z,20.30
2022-12-19T12:46:31.023Z,20.30
2022-12-19T12:47:33.583Z,20.20
2022-12-19T12:48:39.101Z,20.30
2022-12-19T12:49:45.307Z,20.30
2022-12-19T12:50:54.967Z,20.30
2022-12-19T12:52:00.479Z,20.20
2022-12-19T12:53:09.219Z,20.20
2022-12-19T12:54:14.840Z,20.20
2022-12-19T12:55:25.875Z,20.20
2022-12-19T12:56:28.888Z,20.10
2022-12-19T12:57:37.290Z,20.10
2022-12-19T12:58:43.874Z,20.20
2022-12-19T12:59:47.941Z,20.20
2022-12-19T13:01:17.517Z,20.20
2022-12-19T13:02:25.259Z,20.20
2022-12-19T13:03:29.350Z,20.20
2022-12-19T13:04:35.371Z,20.20
2022-12-19T13:05:43.470Z,20.20
2022-12-19T13:06:51.460Z,20.20
2022-12-19T13:07:55.118Z,20.20
2022-12-19T13:09:09.609Z,20.10
2022-12-19T13:10:17.206Z,20.00
2022-12-19T13:11:38.301Z,19.80
2022-12-19T13:13:15.822Z,19.90
2022-12-19T13:14:39.184Z,20.00
2022-12-19T13:15:44.261Z,20.20
2022-12-19T13:16:50.173Z,20.20
2022-12-19T13:17:52.755Z,20.30
2022-12-19T13:19:19.708Z,20.30
2022-12-19T13:20:26.570Z,20.30
2022-12-19T13:22:05.396Z,20.30
2022-12-19T13:23:22.737Z,20.40
2022-12-19T13:24:25.082Z,20.40
2022-12-19T13:25:47.584Z,20.40
2022-12-19T13:26:52.249Z,20.40
2022-12-19T13:28:01.762Z,20.50
2022-12-19T13:29:30.852Z,20.50
2022-12-19T13:31:13.534Z,20.50
2022-12-19T13:32:11.463Z,20.50
2022-12-19T13:33:15.555Z,20.50
2022-12-19T13:34:19.315Z,20.50
2022-12-19T13:36:25.215Z,20.50
2022-12-19T13:39:56.638Z,20.40
2022-12-19T13:40:01.457Z,20.40
2022-12-19T13:40:33.222Z,20.50
2022-12-19T13:42:00.972Z,20.00
2022-12-19T13:43:42.529Z,19.90
2022-12-19T13:44:45.067Z,19.90
2022-12-19T13:45:59.512Z,19.80
2022-12-19T13:47:02.533Z,19.80
2022-12-19T13:48:05.565Z,19.80
2022-12-19T13:49:25.030Z,19.80
2022-12-19T13:50:38.037Z,19.80
2022-12-19T13:51:47.948Z,19.70
2022-12-19T13:52:53.662Z,19.80
2022-12-19T13:53:59.817Z,19.90
2022-12-19T13:55:03.286Z,20.00
2022-12-19T13:56:11.377Z,20.10
2022-12-19T13:57:30.341Z,20.10
2022-12-19T13:58:40.124Z,20.10
2022-12-19T13:59:59.659Z,20.20
2022-12-19T14:01:20.776Z,20.20
2022-12-19T14:02:44.174Z,20.10
2022-12-19T14:03:49.332Z,20.10
2022-12-19T14:04:52.047Z,20.10
2022-12-19T14:06:16.663Z,20.10
2022-12-19T14:07:39.261Z,20.10
2022-12-19T14:08:45.412Z,20.10
2022-12-19T14:11:33.790Z,20.10
2022-12-19T14:11:42.086Z,20.10
2022-12-19T14:13:57.268Z,20.10
2022-12-19T14:14:42.373Z,20.20
2022-12-19T14:15:52.225Z,20.20
2022-12-19T14:16:55.867Z,20.20
2022-12-19T14:18:44.565Z,20.20
2022-12-19T14:19:52.170Z,20.20
2022-12-19T14:22:04.748Z,20.20
2022-12-19T14:22:36.200Z,20.20
2022-12-19T14:23:43.905Z,20.20
2022-12-19T14:25:32.087Z,20.20
2022-12-19T14:28:19.921Z,20.20
2022-12-19T14:28:25.154Z,20.20
2022-12-19T14:30:28.572Z,20.20
2022-12-19T14:31:02.438Z,20.20
2022-12-19T14:32:41.993Z,20.20
2022-12-19T14:33:59.104Z,20.20
2022-12-19T14:36:10.440Z,20.20
2022-12-19T14:36:33.132Z,20.20
2022-12-19T14:38:37.383Z,20.20
2022-12-19T14:39:25.134Z,20.20
2022-12-19T14:40:32.910Z,20.30
2022-12-19T14:43:30.233Z,20.20
2022-12-19T14:43:58.049Z,20.20
2022-12-19T14:52:35.934Z,20.20
2022-12-19T14:54:15.600Z,20.20
2022-12-19T14:54:15.968Z,20.20
2022-12-19T14:54:21.093Z,20.20
2022-12-19T14:54:28.081Z,20.20
2022-12-19T14:54:34.887Z,20.20
2022-12-19T14:56:08.173Z,19.80
2022-12-19T14:56:59.610Z,19.20
2022-12-19T14:58:54.942Z,18.90
2022-12-19T14:59:48.567Z,18.70
2022-12-19T15:01:10.624Z,18.50
2022-12-19T15:02:27.959Z,18.40
2022-12-19T15:04:51.294Z,18.30
2022-12-19T15:05:18.862Z,18.20
2022-12-19T15:07:07.385Z,18.60
2022-12-19T15:07:51.796Z,18.80
2022-12-19T15:11:00.328Z,19.10
2022-12-19T15:11:07.500Z,19.20
2022-12-19T15:14:03.952Z,19.40
2022-12-19T15:14:56.395Z,19.50
2022-12-19T15:15:58.802Z,19.60
2022-12-19T15:17:31.815Z,19.70
2022-12-19T15:18:34.241Z,19.80